Time;durP1;ratioP1;P1;durP2;ratioP2;P2;SDS_P1;SDS_P2;PMS_P1;PMS_P2;Temp;Humidity;BMP_temperature;BMP_pressure;BME280_temperature;BME280_humidity;BME280_pressure;Samples;Min_cycle;Max_cycle;Signal;HPM_P1;HPM_P2
2021/01/11 00:00:33;;;;;;;25.83;14.30;;;;;;;-0.45;80.98;100457.83;1729303;81;21649;-73
2021/01/11 00:03:02;;;;;;;13.23;7.73;;;;;;;-0.51;81.01;100453.66;1728628;82;21146;-73
2021/01/11 00:05:29;;;;;;;18.27;8.17;;;;;;;-0.56;80.91;100457.28;1724793;82;21825;-74
2021/01/11 00:07:57;;;;;;;24.17;13.90;;;;;;;-0.56;81.11;100461.23;1729059;82;21119;-72
2021/01/11 00:10:25;;;;;;;52.17;24.03;;;;;;;-0.47;81.20;100457.63;1749092;80;22366;-73
2021/01/11 00:12:52;;;;;;;53.57;25.37;;;;;;;-0.38;81.00;100443.98;1741181;81;21802;-70
2021/01/11 00:15:20;;;;;;;32.23;15.33;;;;;;;-0.32;80.78;100440.18;1713711;82;21664;-72
2021/01/11 00:17:49;;;;;;;28.00;13.83;;;;;;;-0.31;80.28;100429.12;1766463;80;21157;-72
2021/01/11 00:20:20;;;;;;;13.90;9.23;;;;;;;-0.33;80.00;100427.12;1760376;81;21139;-70
2021/01/11 00:22:49;;;;;;;12.37;7.80;;;;;;;-0.42;79.97;100427.59;1771169;80;21030;-73
2021/01/11 00:25:16;;;;;;;12.83;7.60;;;;;;;-0.51;79.57;100418.83;1701941;84;21963;-72
2021/01/11 00:27:43;;;;;;;12.27;7.57;;;;;;;-0.59;79.83;100426.73;1724357;82;21046;-75
2021/01/11 00:30:33;;;;;;;6.67;5.07;;;;;;;-0.62;80.12;100427.03;1755684;80;21181;-73
2021/01/11 00:33:01;;;;;;;9.37;6.27;;;;;;;-0.74;80.13;100432.78;1761856;81;21121;-73
2021/01/11 00:35:29;;;;;;;10.20;7.07;;;;;;;-0.81;80.38;100433.06;1766247;79;21205;-72
2021/01/11 00:37:56;;;;;;;6.53;4.77;;;;;;;-0.88;80.64;100434.20;1762152;81;21955;-73
2021/01/11 00:40:24;;;;;;;4.73;3.97;;;;;;;-0.84;80.72;100435.54;1764308;81;21187;-72
2021/01/11 00:42:51;;;;;;;8.27;4.30;;;;;;;-0.88;80.34;100442.12;1758191;81;21694;-72
2021/01/11 00:45:19;;;;;;;6.27;4.53;;;;;;;-0.93;80.49;100432.53;1758804;81;21133;-71
2021/01/11 00:47:46;;;;;;;7.50;4.73;;;;;;;-0.91;80.65;100441.10;1758068;81;21202;-70
2021/01/11 00:50:16;;;;;;;5.67;3.90;;;;;;;-0.92;80.42;100443.44;1728314;82;21172;-70
2021/01/11 00:52:45;;;;;;;7.87;4.47;;;;;;;-0.96;80.47;100438.13;1704435;82;21614;-71
2021/01/11 00:55:14;;;;;;;5.73;5.13;;;;;;;-1.00;80.37;100440.73;1728036;82;21171;-68
2021/01/11 00:57:44;;;;;;;6.53;4.63;;;;;;;-1.04;80.42;100440.71;1729735;81;21212;-69
2021/01/11 01:00:15;;;;;;;5.27;4.10;;;;;;;-1.00;80.55;100436.77;1724236;82;21169;-70
2021/01/11 01:02:44;;;;;;;6.23;4.47;;;;;;;-0.93;80.39;100441.28;1751767;81;21279;-69
2021/01/11 01:05:13;;;;;;;6.97;4.40;;;;;;;-0.90;79.93;100440.13;1734200;82;21136;-69
2021/01/11 01:07:42;;;;;;;6.53;4.27;;;;;;;-0.90;80.07;100442.27;1752782;81;21201;-71
2021/01/11 01:10:11;;;;;;;4.73;4.20;;;;;;;-0.86;79.97;100437.50;1707686;82;20961;-70
2021/01/11 01:12:39;;;;;;;9.70;6.00;;;;;;;-0.83;79.93;100441.16;1734572;82;21263;-71
2021/01/11 01:15:09;;;;;;;5.07;4.30;;;;;;;-0.84;79.75;100443.46;1755202;81;21158;-70
2021/01/11 01:17:38;;;;;;;5.43;4.27;;;;;;;-0.84;79.78;100448.74;1734154;82;21621;-69
2021/01/11 01:20:14;;;;;;;6.13;4.83;;;;;;;-0.85;79.76;100446.25;1754949;81;21031;-69
2021/01/11 01:22:37;;;;;;;6.70;4.67;;;;;;;-0.90;79.79;100449.36;1733578;82;21191;-68
2021/01/11 01:25:08;;;;;;;7.80;4.67;;;;;;;-0.89;79.95;100441.78;1734244;82;21225;-68
2021/01/11 01:27:35;;;;;;;4.93;3.97;;;;;;;-0.81;79.86;100444.95;1754941;81;21059;-69
2021/01/11 01:30:04;;;;;;;7.33;5.13;;;;;;;-0.85;79.55;100451.53;1704863;84;21005;-70
2021/01/11 01:32:32;;;;;;;5.17;3.67;;;;;;;-0.86;79.62;100452.54;1753861;80;21204;-68
2021/01/11 01:35:00;;;;;;;6.27;4.90;;;;;;;-0.79;79.66;100457.02;1719991;83;21142;-69
2021/01/11 01:37:28;;;;;;;8.23;4.50;;;;;;;-0.79;79.27;100453.06;1702031;83;21206;-70
2021/01/11 01:39:55;;;;;;;9.33;5.67;;;;;;;-0.85;79.03;100440.97;1691129;84;21157;-70
2021/01/11 01:42:23;;;;;;;5.70;4.87;;;;;;;-0.91;79.28;100435.82;1711441;83;21185;-70
2021/01/11 01:44:51;;;;;;;5.87;4.53;;;;;;;-0.89;79.42;100435.19;1711559;83;21184;-72
2021/01/11 01:47:18;;;;;;;7.77;3.50;;;;;;;-0.85;79.34;100448.41;1710696;82;21166;-71
2021/01/11 01:49:59;;;;;;;8.00;4.93;;;;;;;-0.87;79.29;100442.47;1647417;87;21399;-70
2021/01/11 01:52:27;;;;;;;7.37;5.37;;;;;;;-0.92;79.27;100444.75;1692520;84;21141;-70
2021/01/11 01:54:54;;;;;;;4.53;4.10;;;;;;;-0.94;79.29;100456.78;1666922;84;21577;-72
2021/01/11 01:57:22;;;;;;;5.23;4.30;;;;;;;-0.95;79.31;100460.89;1703581;83;21608;-72
2021/01/11 01:59:49;;;;;;;7.50;4.33;;;;;;;-0.99;79.43;100462.19;1714401;83;21125;-74
2021/01/11 02:02:19;;;;;;;5.87;3.30;;;;;;;-0.97;79.45;100461.55;1713466;83;21159;-73
2021/01/11 02:04:48;;;;;;;8.40;5.00;;;;;;;-0.97;79.38;100454.95;1713065;83;22261;-73
2021/01/11 02:07:34;;;;;;;4.80;3.40;;;;;;;-1.01;79.45;100459.70;1703169;83;21157;-71
2021/01/11 02:10:30;;;;;;;6.60;4.17;;;;;;;-0.96;79.59;100457.94;1711551;83;21208;-73
2021/01/11 02:13:29;;;;;;;6.07;4.33;;;;;;;-0.98;79.56;100462.53;1711546;83;21125;-73
2021/01/11 02:16:29;;;;;;;7.67;4.77;;;;;;;-1.07;79.71;100462.98;1676914;84;21478;-70
2021/01/11 02:19:19;;;;;;;4.37;3.80;;;;;;;-1.08;79.83;100467.92;1687704;84;21195;-71
2021/01/11 02:22:14;;;;;;;7.13;4.53;;;;;;;-1.06;79.87;100464.64;1692060;84;21056;-71
2021/01/11 02:25:25;;;;;;;7.10;4.70;;;;;;;-1.05;79.86;100463.64;1692022;84;21145;-72
2021/01/11 02:27:56;;;;;;;9.57;4.70;;;;;;;-1.00;79.79;100467.96;1712301;83;21187;-72
2021/01/11 02:30:36;;;;;;;6.53;3.27;;;;;;;-0.97;79.48;100462.88;1697028;83;21390;-74
2021/01/11 02:33:09;;;;;;;7.07;4.07;;;;;;;-0.94;79.18;100460.73;1721239;83;21137;-74
2021/01/11 02:35:51;;;;;;;7.40;4.83;;;;;;;-0.92;78.62;100465.88;1722318;83;21472;-73
2021/01/11 02:38:22;;;;;;;8.17;4.17;;;;;;;-0.91;78.39;100447.22;1704548;83;21146;-74
2021/01/11 02:40:51;;;;;;;23.30;10.82;;;;;;;-0.82;78.05;100457.34;1663559;84;21147;-74
2021/01/11 02:43:20;;;;;;;18.33;9.63;;;;;;;-0.77;78.17;100443.67;1692287;84;21547;-74
2021/01/11 02:45:49;;;;;;;13.60;7.70;;;;;;;-0.66;78.10;100444.69;1692056;84;21047;-76
2021/01/11 02:48:22;;;;;;;20.87;10.23;;;;;;;-0.56;77.88;100446.71;1666990;83;21232;-72
2021/01/11 02:50:59;;;;;;;20.77;10.97;;;;;;;-0.55;77.37;100445.73;1688885;84;21654;-72
2021/01/11 02:53:33;;;;;;;13.97;8.13;;;;;;;-0.60;77.32;100445.38;1665770;85;21149;-74
2021/01/11 02:56:05;;;;;;;15.05;7.87;;;;;;;-0.57;77.27;100443.23;1683897;83;22277;-74
2021/01/11 02:58:57;;;;;;;12.95;7.00;;;;;;;-0.54;77.02;100442.11;1688687;83;21609;-74
2021/01/11 03:01:25;;;;;;;13.73;6.63;;;;;;;-0.52;76.99;100434.83;1740656;82;21133;-72
2021/01/11 03:03:53;;;;;;;9.20;6.30;;;;;;;-0.53;76.87;100422.11;1688952;82;21232;-73
2021/01/11 03:06:31;;;;;;;18.23;9.03;;;;;;;-0.58;76.67;100413.04;1711511;82;21575;-75
2021/01/11 03:09:05;;;;;;;16.57;9.03;;;;;;;-0.68;76.33;100409.70;1730871;82;21484;-73
2021/01/11 03:11:35;;;;;;;19.63;11.27;;;;;;;-0.77;76.64;100418.09;1738418;82;21051;-73
2021/01/11 03:14:04;;;;;;;24.20;13.37;;;;;;;-0.84;76.80;100413.09;1734989;82;21074;-75
2021/01/11 03:16:31;;;;;;;31.67;16.10;;;;;;;-0.79;77.23;100416.09;1735215;82;21178;-74
2021/01/11 03:19:00;;;;;;;23.90;11.03;;;;;;;-0.66;77.35;100416.95;1722541;82;21195;-75
2021/01/11 03:21:28;;;;;;;16.07;7.37;;;;;;;-0.57;77.16;100406.74;1709841;83;21393;-75
2021/01/11 03:23:56;;;;;;;18.67;9.17;;;;;;;-0.55;77.27;100414.03;1685257;83;21234;-74
2021/01/11 03:26:24;;;;;;;11.57;7.30;;;;;;;-0.46;77.35;100413.89;1692439;83;21189;-77
2021/01/11 03:28:53;;;;;;;21.43;11.70;;;;;;;-0.35;77.12;100415.91;1708935;83;21157;-74
2021/01/11 03:31:21;;;;;;;17.07;9.57;;;;;;;-0.34;77.10;100420.20;1710041;83;21228;-75
2021/01/11 03:33:49;;;;;;;25.33;10.27;;;;;;;-0.32;76.87;100421.69;1669734;84;21348;-73
2021/01/11 03:36:17;;;;;;;16.17;7.70;;;;;;;-0.31;76.74;100425.98;1695752;84;21679;-74
2021/01/11 03:38:45;;;;;;;11.70;7.73;;;;;;;-0.34;76.76;100432.92;1704926;83;21158;-75
2021/01/11 03:41:13;;;;;;;6.70;5.07;;;;;;;-0.36;76.84;100433.56;1726117;83;21407;-75
2021/01/11 03:43:43;;;;;;;5.27;4.30;;;;;;;-0.35;76.88;100436.55;1741886;82;21196;-74
2021/01/11 03:46:14;;;;;;;6.47;4.70;;;;;;;-0.33;76.78;100435.05;1749319;82;21231;-74
2021/01/11 03:48:42;;;;;;;8.53;4.50;;;;;;;-0.30;76.62;100432.10;1722603;82;21092;-76
2021/01/11 03:51:10;;;;;;;6.30;4.43;;;;;;;-0.25;76.65;100437.23;1736900;82;21131;-78
2021/01/11 03:53:38;;;;;;;6.40;4.73;;;;;;;-0.23;76.61;100439.20;1742530;82;21204;-75
2021/01/11 03:56:07;;;;;;;8.73;5.53;;;;;;;-0.25;76.67;100435.09;1749533;81;21172;-76
2021/01/11 03:58:35;;;;;;;9.53;7.30;;;;;;;-0.27;76.63;100441.02;1764581;81;22254;-75
2021/01/11 04:01:04;;;;;;;7.60;5.63;;;;;;;-0.30;76.66;100440.86;1759006;81;21028;-76
2021/01/11 04:03:32;;;;;;;22.70;13.97;;;;;;;-0.28;76.68;100442.83;1752204;81;21231;-74
2021/01/11 04:06:00;;;;;;;17.90;11.77;;;;;;;-0.30;76.58;100442.19;1729181;83;21161;-74
2021/01/11 04:08:28;;;;;;;11.23;8.03;;;;;;;-0.32;76.54;100457.84;1723148;82;21168;-75
2021/01/11 04:10:56;;;;;;;13.47;8.80;;;;;;;-0.35;76.50;100459.02;1739360;82;21658;-75
2021/01/11 04:13:23;;;;;;;11.13;7.30;;;;;;;-0.32;76.57;100463.13;1756789;81;21188;-73
2021/01/11 04:15:50;;;;;;;9.40;6.57;;;;;;;-0.21;76.63;100458.39;1739326;82;21174;-72
2021/01/11 04:18:18;;;;;;;10.70;6.77;;;;;;;-0.03;76.27;100463.54;1739457;82;20998;-75
2021/01/11 04:20:47;;;;;;;7.47;5.43;;;;;;;0.06;75.86;100463.05;1764349;81;21108;-73
2021/01/11 04:23:14;;;;;;;10.07;5.70;;;;;;;0.07;75.33;100470.00;1756497;81;21185;-71
2021/01/11 04:25:42;;;;;;;12.13;7.60;;;;;;;-0.03;75.19;100470.15;1741958;81;21150;-75
2021/01/11 04:28:09;;;;;;;9.07;5.30;;;;;;;-0.12;75.18;100461.38;1741739;82;21107;-77
2021/01/11 04:30:37;;;;;;;9.83;6.40;;;;;;;-0.19;75.12;100463.52;1762861;81;21610;-73
2021/01/11 04:33:05;;;;;;;15.10;7.63;;;;;;;-0.22;75.15;100475.72;1755305;81;21224;-74
2021/01/11 04:35:33;;;;;;;11.20;5.93;;;;;;;-0.14;75.20;100479.70;1739373;82;21216;-74
2021/01/11 04:38:00;;;;;;;8.60;5.60;;;;;;;-0.06;74.84;100473.13;1739432;82;21554;-75
2021/01/11 04:40:28;;;;;;;9.27;5.03;;;;;;;-0.09;74.79;100466.83;1752553;81;20986;-74
2021/01/11 04:43:10;;;;;;;13.87;6.53;;;;;;;-0.16;74.64;100469.31;1753958;81;21242;-72
2021/01/11 04:45:37;;;;;;;12.00;7.70;;;;;;;-0.21;74.68;100476.06;1742435;81;21115;-74
2021/01/11 04:48:06;;;;;;;13.17;7.23;;;;;;;-0.32;75.10;100476.34;1743060;82;21267;-73
2021/01/11 04:50:34;;;;;;;10.47;7.17;;;;;;;-0.31;75.53;100469.59;1732859;82;21193;-75
2021/01/11 04:53:10;;;;;;;10.57;6.40;;;;;;;-0.21;75.83;100462.84;1730758;81;21188;-73
2021/01/11 04:55:38;;;;;;;13.47;8.57;;;;;;;-0.14;75.89;100457.23;1692113;84;21237;-74
2021/01/11 04:58:08;;;;;;;14.07;7.30;;;;;;;-0.09;76.04;100468.14;1692107;84;21195;-75
2021/01/11 05:00:37;;;;;;;11.10;7.00;;;;;;;-0.11;75.81;100472.30;1692092;84;21392;-74
2021/01/11 05:03:07;;;;;;;11.37;8.37;;;;;;;-0.05;75.90;100471.63;1698415;82;21204;-75
2021/01/11 05:05:40;;;;;;;9.17;6.43;;;;;;;-0.02;75.98;100473.96;1725958;83;21176;-75
2021/01/11 05:08:08;;;;;;;9.48;6.67;;;;;;;0.06;76.15;100480.23;1703521;84;21223;-77
2021/01/11 05:10:37;;;;;;;8.80;6.80;;;;;;;0.12;76.14;100475.14;1726143;83;21605;-76
2021/01/11 05:13:09;;;;;;;9.57;6.53;;;;;;;0.17;76.15;100462.75;1720468;82;21389;-75
2021/01/11 05:15:39;;;;;;;10.57;6.83;;;;;;;0.10;76.00;100458.59;1714721;83;21613;-74
2021/01/11 05:18:20;;;;;;;8.17;5.80;;;;;;;0.01;76.31;100467.51;1715152;83;21507;-75
2021/01/11 05:20:47;;;;;;;10.90;7.50;;;;;;;-0.02;76.44;100461.23;1714752;82;21178;-75
2021/01/11 05:23:16;;;;;;;11.27;7.40;;;;;;;0.03;76.60;100462.06;1732343;82;21649;-75
2021/01/11 05:25:45;;;;;;;8.43;5.97;;;;;;;0.09;76.64;100463.58;1751197;82;21456;-76
2021/01/11 05:28:17;;;;;;;8.77;5.63;;;;;;;0.09;76.33;100470.68;1751997;82;21011;-73
2021/01/11 05:30:49;;;;;;;5.53;4.77;;;;;;;-0.03;76.21;100473.63;1751818;82;22352;-74
2021/01/11 05:33:20;;;;;;;10.17;5.57;;;;;;;-0.11;76.18;100465.69;1726835;82;21173;-76
2021/01/11 05:36:12;;;;;;;9.43;7.30;;;;;;;-0.12;76.03;100471.13;1718914;83;21231;-75
2021/01/11 05:38:46;;;;;;;9.45;6.10;;;;;;;-0.11;76.14;100471.47;1715249;83;22293;-73
2021/01/11 05:41:21;;;;;;;9.20;5.30;;;;;;;-0.06;76.25;100477.09;1728031;82;21023;-74
2021/01/11 05:44:10;;;;;;;10.27;7.60;;;;;;;-0.07;76.21;100477.59;1710354;82;21006;-74
2021/01/11 05:46:38;;;;;;;9.33;6.00;;;;;;;-0.08;76.27;100479.06;1698575;84;21082;-75
2021/01/11 05:49:10;;;;;;;9.80;6.00;;;;;;;-0.04;75.88;100479.06;1690318;84;21610;-74
2021/01/11 05:51:40;;;;;;;7.63;5.57;;;;;;;-0.06;75.42;100484.53;1654591;84;21508;-75
2021/01/11 05:54:25;;;;;;;12.73;7.03;;;;;;;-0.11;75.28;100480.72;1726943;82;21180;-74
2021/01/11 05:56:56;;;;;;;15.63;9.00;;;;;;;-0.14;75.13;100481.85;1735972;82;21181;-74
2021/01/11 05:59:24;;;;;;;13.83;8.13;;;;;;;-0.15;75.32;100482.03;1745520;82;21165;-74
2021/01/11 06:02:00;;;;;;;13.10;7.33;;;;;;;-0.17;75.50;100486.15;1728677;82;21614;-75
2021/01/11 06:04:28;;;;;;;12.83;6.23;;;;;;;-0.17;75.53;100489.28;1703384;83;22362;-75
2021/01/11 06:06:56;;;;;;;14.87;8.57;;;;;;;-0.19;75.69;100487.31;1669256;85;21183;-73
2021/01/11 06:09:24;;;;;;;15.27;10.20;;;;;;;-0.23;76.07;100485.47;1678930;85;21050;-76
2021/01/11 06:11:51;;;;;;;15.57;9.90;;;;;;;-0.25;76.46;100488.78;1686051;85;21110;-73
2021/01/11 06:14:19;;;;;;;10.90;6.50;;;;;;;-0.23;76.68;100483.31;1679273;84;21660;-75
2021/01/11 06:16:47;;;;;;;10.13;6.63;;;;;;;-0.23;76.30;100484.14;1669142;85;22662;-75
2021/01/11 06:19:15;;;;;;;15.17;9.67;;;;;;;-0.23;76.10;100489.43;1663910;84;21193;-74
2021/01/11 06:21:51;;;;;;;16.53;9.67;;;;;;;-0.20;75.97;100497.06;1675818;85;21040;-75
2021/01/11 06:24:20;;;;;;;23.43;14.10;;;;;;;-0.17;76.20;100498.05;1671162;85;21618;-75
2021/01/11 06:26:48;;;;;;;24.10;12.50;;;;;;;-0.20;76.53;100507.63;1686367;84;21634;-76
2021/01/11 06:29:32;;;;;;;17.27;10.30;;;;;;;-0.20;76.83;100502.34;1692865;84;21212;-74
2021/01/11 06:32:21;;;;;;;16.00;8.70;;;;;;;-0.15;76.59;100501.37;1664311;86;21006;-74
2021/01/11 06:34:49;;;;;;;12.70;8.73;;;;;;;-0.16;75.62;100503.67;1664368;85;21147;-74
2021/01/11 06:37:19;;;;;;;12.70;8.10;;;;;;;-0.21;74.65;100498.04;1664163;86;21094;-73
2021/01/11 06:39:47;;;;;;;12.60;7.90;;;;;;;-0.22;74.07;100502.16;1646225;85;21217;-73
2021/01/11 06:42:15;;;;;;;8.87;6.93;;;;;;;-0.24;73.93;100508.11;1674656;84;22011;-75
2021/01/11 06:44:48;;;;;;;10.90;8.47;;;;;;;-0.28;73.22;100507.58;1639611;86;21625;-76
2021/01/11 06:47:29;;;;;;;17.05;9.53;;;;;;;-0.31;73.04;100507.08;1698518;84;21087;-75
2021/01/11 06:50:08;;;;;;;12.87;7.50;;;;;;;-0.34;73.04;100500.31;1649238;85;21102;-74
2021/01/11 06:52:37;;;;;;;14.80;10.30;;;;;;;-0.31;73.10;100499.98;1686139;84;21164;-74
2021/01/11 06:55:12;;;;;;;13.33;8.37;;;;;;;-0.31;73.02;100500.48;1686688;85;21610;-74
2021/01/11 06:57:40;;;;;;;13.30;8.73;;;;;;;-0.27;73.21;100497.84;1673286;85;21193;-74
2021/01/11 07:00:10;;;;;;;17.10;9.77;;;;;;;-0.23;72.98;100501.33;1699229;84;21562;-74
2021/01/11 07:02:42;;;;;;;11.23;8.20;;;;;;;-0.17;72.76;100508.63;1745178;82;21655;-74
2021/01/11 07:05:37;;;;;;;15.13;8.83;;;;;;;-0.15;72.08;100507.15;1722738;83;21133;-73
2021/01/11 07:08:09;;;;;;;14.83;7.80;;;;;;;-0.20;71.98;100502.84;1720810;82;21361;-74
2021/01/11 07:10:44;;;;;;;13.10;8.13;;;;;;;-0.22;71.63;100496.38;1749194;82;21073;-72
2021/01/11 07:13:23;;;;;;;19.65;10.43;;;;;;;-0.27;71.47;100496.52;1749362;82;21184;-73
2021/01/11 07:15:58;;;;;;;12.83;7.60;;;;;;;-0.34;71.74;100491.55;1749290;82;21043;-74
2021/01/11 07:18:44;;;;;;;15.47;8.03;;;;;;;-0.41;71.50;100500.61;1742488;82;21594;-74
2021/01/11 07:21:20;;;;;;;14.67;8.27;;;;;;;-0.43;71.46;100495.95;1694713;82;21393;-73
2021/01/11 07:23:48;;;;;;;14.77;8.53;;;;;;;-0.32;71.79;100504.93;1665733;86;21220;-75
2021/01/11 07:26:18;;;;;;;10.20;5.87;;;;;;;-0.19;71.55;100504.50;1696964;84;21178;-73
2021/01/11 07:28:56;;;;;;;10.67;6.60;;;;;;;-0.10;70.84;100500.39;1719770;82;21594;-73
2021/01/11 07:31:31;;;;;;;14.70;7.47;;;;;;;-0.12;70.46;100495.75;1749317;82;21681;-73
2021/01/11 07:34:10;;;;;;;9.43;7.10;;;;;;;-0.14;70.71;100496.88;1723059;83;21192;-74
2021/01/11 07:36:44;;;;;;;11.67;8.47;;;;;;;-0.17;70.52;100487.47;1684520;82;21652;-72
2021/01/11 07:39:19;;;;;;;10.70;7.23;;;;;;;-0.23;71.09;100488.59;1666974;84;21192;-74
2021/01/11 07:41:50;;;;;;;12.00;9.67;;;;;;;-0.29;71.24;100503.31;1658564;84;21186;-73
2021/01/11 07:44:24;;;;;;;22.50;7.37;;;;;;;-0.22;71.50;100509.59;1658676;84;21160;-73
2021/01/11 07:47:01;;;;;;;18.30;11.77;;;;;;;-0.15;71.18;100507.98;1658102;86;22451;-73
2021/01/11 07:49:38;;;;;;;24.53;15.43;;;;;;;-0.06;70.86;100507.50;1653674;85;21417;-72
2021/01/11 07:52:12;;;;;;;20.83;13.53;;;;;;;0.03;71.32;100507.85;1653799;86;21199;-72
2021/01/11 07:54:41;;;;;;;20.47;11.80;;;;;;;0.11;71.68;100505.22;1649322;87;21043;-75
2021/01/11 07:57:15;;;;;;;21.33;11.70;;;;;;;0.14;71.91;100510.69;1653730;86;21154;-73
2021/01/11 07:59:44;;;;;;;23.77;14.10;;;;;;;0.13;72.11;100510.35;1664599;84;21603;-73
2021/01/11 08:02:15;;;;;;;16.53;11.30;;;;;;;0.12;72.38;100511.33;1693575;84;21189;-74
2021/01/11 08:04:43;;;;;;;18.17;11.10;;;;;;;0.21;72.20;100516.48;1696316;84;21556;-74
2021/01/11 08:07:12;;;;;;;21.63;12.17;;;;;;;0.31;71.75;100517.66;1693779;84;21162;-74
2021/01/11 08:09:41;;;;;;;21.77;11.90;;;;;;;0.36;71.39;100510.88;1677923;84;21637;-73
2021/01/11 08:12:17;;;;;;;17.27;9.57;;;;;;;0.35;71.34;100511.03;1678071;84;21182;-73
2021/01/11 08:14:46;;;;;;;18.03;9.53;;;;;;;0.32;71.17;100514.02;1685741;84;21184;-74
2021/01/11 08:17:22;;;;;;;13.67;8.53;;;;;;;0.26;70.41;100516.81;1665612;86;21145;-73
2021/01/11 08:19:58;;;;;;;7.60;5.37;;;;;;;0.22;69.73;100522.59;1639694;87;21158;-74
2021/01/11 08:22:27;;;;;;;15.40;10.43;;;;;;;0.15;66.89;100520.25;1680532;85;21185;-74
2021/01/11 08:24:58;;;;;;;16.80;10.63;;;;;;;0.10;67.33;100522.06;1672950;85;21220;-74
2021/01/11 08:27:43;;;;;;;13.87;7.93;;;;;;;0.12;67.82;100515.30;1679879;85;21168;-73
2021/01/11 08:30:15;;;;;;;16.80;11.05;;;;;;;0.17;68.07;100517.80;1655170;85;21162;-75
2021/01/11 08:32:42;;;;;;;18.82;10.28;;;;;;;0.16;68.38;100520.59;1653942;86;21636;-75
2021/01/11 08:35:15;;;;;;;19.93;12.13;;;;;;;0.16;68.80;100520.59;1655124;84;21184;-74
2021/01/11 08:37:43;;;;;;;23.35;14.45;;;;;;;0.15;69.02;100516.29;1658348;84;21287;-74
2021/01/11 08:40:20;;;;;;;25.90;14.90;;;;;;;0.14;69.33;100525.23;1683052;84;21200;-73
2021/01/11 08:42:48;;;;;;;19.03;11.67;;;;;;;0.16;69.64;100522.75;1690773;84;21541;-73
2021/01/11 08:45:36;;;;;;;23.40;13.47;;;;;;;0.17;69.07;100530.19;1688189;84;21134;-75
2021/01/11 08:48:14;;;;;;;25.63;14.07;;;;;;;0.18;69.38;100528.72;1691254;84;21122;-73
2021/01/11 08:50:56;;;;;;;23.77;15.83;;;;;;;0.22;69.86;100531.86;1672614;84;21568;-73
2021/01/11 08:53:35;;;;;;;26.87;14.03;;;;;;;0.31;69.92;100537.48;1640126;85;21218;-75
2021/01/11 08:56:09;;;;;;;19.23;13.03;;;;;;;0.39;69.90;100534.36;1660885;86;21144;-74
2021/01/11 08:58:48;;;;;;;23.50;14.58;;;;;;;0.37;67.67;100534.20;1690583;84;21126;-73
2021/01/11 09:01:17;;;;;;;24.67;12.23;;;;;;;0.31;67.85;100534.84;1652497;86;21174;-74
2021/01/11 09:03:55;;;;;;;21.70;14.13;;;;;;;0.33;69.70;100528.91;1652984;86;21517;-74
2021/01/11 09:06:42;;;;;;;23.10;14.20;;;;;;;0.36;69.08;100525.44;1652292;86;21094;-74
2021/01/11 09:09:17;;;;;;;31.87;14.73;;;;;;;0.40;69.43;100524.60;1656984;85;21039;-74
2021/01/11 09:11:47;;;;;;;19.07;12.87;;;;;;;0.51;68.94;100523.46;1667278;84;21176;-73
2021/01/11 09:14:17;;;;;;;20.43;12.23;;;;;;;0.59;68.80;100528.26;1675197;85;21672;-73
2021/01/11 09:16:46;;;;;;;28.33;16.10;;;;;;;0.60;68.67;100523.80;1704695;84;21402;-74
2021/01/11 09:19:17;;;;;;;30.60;15.00;;;;;;;0.60;68.69;100519.33;1699113;84;21067;-74
2021/01/11 09:21:58;;;;;;;34.17;16.80;;;;;;;0.63;68.52;100520.80;1652230;85;21614;-73
2021/01/11 09:24:28;;;;;;;28.73;14.53;;;;;;;0.58;68.58;100517.33;1641191;86;21157;-74
2021/01/11 09:26:56;;;;;;;33.57;17.77;;;;;;;0.57;67.94;100518.84;1652186;86;21448;-73
2021/01/11 09:29:25;;;;;;;26.93;17.37;;;;;;;0.59;68.08;100520.31;1666172;85;21370;-73
2021/01/11 09:31:52;;;;;;;32.67;19.60;;;;;;;0.63;67.88;100512.38;1652179;86;21193;-74
2021/01/11 09:34:20;;;;;;;30.40;17.50;;;;;;;0.58;67.47;100516.01;1659379;84;21180;-74
2021/01/11 09:36:50;;;;;;;38.97;19.93;;;;;;;0.49;67.68;100514.35;1674642;84;21189;-74
2021/01/11 09:39:18;;;;;;;32.67;18.90;;;;;;;0.50;67.78;100517.83;1659226;85;21098;-74
2021/01/11 09:41:56;;;;;;;25.50;15.53;;;;;;;0.54;67.88;100517.83;1673459;84;21170;-75
2021/01/11 09:44:24;;;;;;;29.93;18.90;;;;;;;0.54;67.76;100513.37;1673431;85;21137;-74
2021/01/11 09:46:54;;;;;;;32.60;18.47;;;;;;;0.52;68.00;100511.40;1659394;85;21036;-72
2021/01/11 09:49:24;;;;;;;24.47;14.33;;;;;;;0.56;67.81;100512.72;1663346;85;21210;-75
2021/01/11 09:51:52;;;;;;;32.47;17.50;;;;;;;0.60;67.66;100509.23;1681953;85;21162;-72
2021/01/11 09:54:20;;;;;;;27.33;16.30;;;;;;;0.61;67.29;100506.44;1696967;84;23480;-75
2021/01/11 09:56:48;;;;;;;30.83;18.80;;;;;;;0.60;67.48;100508.74;1674169;84;21180;-73
2021/01/11 09:59:16;;;;;;;34.47;17.43;;;;;;;0.58;67.50;100512.53;1651091;85;21228;-76
2021/01/11 10:01:46;;;;;;;34.10;21.00;;;;;;;0.62;67.72;100503.30;1646955;87;21164;-75
2021/01/11 10:04:16;;;;;;;29.33;18.10;;;;;;;0.64;67.94;100494.18;1668525;84;21181;-74
2021/01/11 10:06:49;;;;;;;33.07;20.47;;;;;;;0.68;67.87;100497.31;1685880;85;21291;-73
2021/01/11 10:09:21;;;;;;;25.68;15.35;;;;;;;0.69;67.88;100492.35;1691759;84;21137;-75
2021/01/11 10:11:59;;;;;;;43.87;21.30;;;;;;;0.70;67.65;100496.66;1675839;84;21590;-78
2021/01/11 10:14:28;;;;;;;31.33;19.73;;;;;;;0.72;67.54;100492.84;1637638;87;21654;-78
2021/01/11 10:16:57;;;;;;;27.80;16.40;;;;;;;0.71;67.21;100489.89;1666354;86;21211;-74
2021/01/11 10:19:29;;;;;;;35.87;20.37;;;;;;;0.67;67.04;100496.48;1650017;87;21466;-75
2021/01/11 10:21:59;;;;;;;35.68;22.42;;;;;;;0.64;66.94;100490.20;1666496;86;21220;-75
2021/01/11 10:24:27;;;;;;;30.90;17.00;;;;;;;0.61;67.27;100489.23;1650030;87;21189;-74
2021/01/11 10:26:56;;;;;;;30.93;18.93;;;;;;;0.66;67.41;100492.20;1650225;87;21310;-74
2021/01/11 10:29:25;;;;;;;19.80;11.40;;;;;;;0.69;67.06;100486.56;1667043;86;21180;-74
2021/01/11 10:31:54;;;;;;;32.90;18.27;;;;;;;0.73;67.12;100485.73;1650528;87;22147;-77
2021/01/11 10:34:22;;;;;;;33.17;19.07;;;;;;;0.74;67.06;100483.42;1652429;86;21210;-76
2021/01/11 10:36:52;;;;;;;44.03;21.63;;;;;;;0.77;66.99;100487.05;1678771;85;21002;-76
2021/01/11 10:39:24;;;;;;;35.50;21.20;;;;;;;0.77;67.04;100484.39;1652859;86;21143;-76
2021/01/11 10:41:54;;;;;;;37.83;23.32;;;;;;;0.83;67.05;100484.56;1678945;85;21427;-74
2021/01/11 10:44:24;;;;;;;38.33;22.90;;;;;;;0.92;66.98;100489.34;1667004;85;21401;-75
2021/01/11 10:46:53;;;;;;;39.77;23.17;;;;;;;0.99;67.00;100478.92;1683550;85;21185;-74
2021/01/11 10:49:21;;;;;;;38.00;21.83;;;;;;;0.98;66.64;100475.94;1674298;85;21026;-77
2021/01/11 10:51:49;;;;;;;42.97;22.43;;;;;;;1.00;66.86;100473.95;1672731;85;21070;-75
2021/01/11 10:54:17;;;;;;;34.20;21.27;;;;;;;1.00;66.86;100470.81;1669393;84;21244;-76
2021/01/11 10:56:45;;;;;;;40.70;20.00;;;;;;;1.00;66.77;100465.52;1682259;84;21237;-76
2021/01/11 10:59:13;;;;;;;41.57;25.17;;;;;;;0.96;66.15;100466.03;1681932;84;21062;-76
2021/01/11 11:01:41;;;;;;;34.37;23.10;;;;;;;0.90;66.42;100462.23;1659197;86;21138;-75
2021/01/11 11:04:12;;;;;;;43.00;24.13;;;;;;;0.91;66.87;100461.73;1676899;84;21160;-75
2021/01/11 11:06:40;;;;;;;30.17;19.30;;;;;;;0.91;66.86;100461.23;1706637;84;21130;-75
2021/01/11 11:09:08;;;;;;;37.83;22.97;;;;;;;0.87;66.50;100463.87;1705699;84;21209;-74
2021/01/11 11:11:36;;;;;;;39.13;23.40;;;;;;;0.80;66.66;100464.23;1657131;84;21026;-76
2021/01/11 11:14:05;;;;;;;58.70;29.23;;;;;;;0.74;66.77;100460.92;1695821;84;21530;-73
2021/01/11 11:16:33;;;;;;;34.70;19.30;;;;;;;0.76;66.97;100464.23;1701472;84;21177;-68
2021/01/11 11:19:01;;;;;;;30.77;18.70;;;;;;;0.78;67.14;100459.09;1673362;85;21134;-70
2021/01/11 11:21:29;;;;;;;38.00;22.30;;;;;;;0.81;66.83;100457.94;1662065;85;21169;-68
2021/01/11 11:23:58;;;;;;;30.93;18.93;;;;;;;0.87;66.83;100457.25;1661407;86;21208;-68
2021/01/11 11:26:26;;;;;;;38.83;19.47;;;;;;;0.94;66.60;100454.77;1643709;87;21204;-71
2021/01/11 11:28:53;;;;;;;25.93;15.77;;;;;;;0.95;66.51;100453.28;1643863;87;21228;-68
2021/01/11 11:31:21;;;;;;;27.90;12.50;;;;;;;1.01;66.12;100451.25;1622885;87;21225;-68
2021/01/11 11:33:52;;;;;;;32.13;18.70;;;;;;;1.03;65.81;100449.77;1658870;84;21247;-71
2021/01/11 11:36:20;;;;;;;24.17;15.87;;;;;;;0.96;65.47;100452.26;1683581;84;21196;-73
2021/01/11 11:38:47;;;;;;;30.03;18.07;;;;;;;0.95;65.75;100452.45;1691454;84;21180;-71